createdAt,value
2017-09-29T00:00:00.211Z,0
2017-09-29T00:00:40.672Z,0
2017-09-29T00:01:21.129Z,0
2017-09-29T00:02:01.568Z,0
2017-09-29T00:02:42.026Z,0
2017-09-29T00:03:22.473Z,0
2017-09-29T00:04:02.931Z,0
2017-09-29T00:04:43.382Z,0
2017-09-29T00:05:23.829Z,0
2017-09-29T00:06:04.285Z,0
2017-09-29T00:06:44.741Z,0
2017-09-29T00:07:25.200Z,0
2017-09-29T00:08:05.653Z,0
2017-09-29T00:08:46.105Z,0
2017-09-29T00:09:26.578Z,0
2017-09-29T00:10:07.027Z,0
2017-09-29T00:10:47.483Z,0
2017-09-29T00:11:27.942Z,0
2017-09-29T00:12:08.400Z,0
2017-09-29T00:12:48.854Z,0
2017-09-29T00:13:29.312Z,0
2017-09-29T00:14:09.771Z,0
2017-09-29T00:14:50.225Z,0
2017-09-29T00:15:30.680Z,0
2017-09-29T00:16:11.133Z,0
2017-09-29T00:16:51.589Z,0
2017-09-29T00:17:32.047Z,0
2017-09-29T00:18:12.517Z,0
2017-09-29T00:18:52.965Z,0
2017-09-29T00:19:33.420Z,0
2017-09-29T00:20:13.872Z,0
2017-09-29T00:20:54.330Z,0
2017-09-29T00:21:34.787Z,0
2017-09-29T00:22:15.243Z,0
2017-09-29T00:22:55.701Z,0
2017-09-29T00:23:36.158Z,0
2017-09-29T00:24:16.621Z,0
2017-09-29T00:24:57.087Z,0
2017-09-29T00:25:37.543Z,0
2017-09-29T00:26:17.997Z,0
2017-09-29T00:26:58.452Z,0
2017-09-29T00:27:38.910Z,0
2017-09-29T00:28:19.370Z,0
2017-09-29T00:28:59.818Z,0
2017-09-29T00:29:40.272Z,0
2017-09-29T00:30:20.729Z,0
2017-09-29T00:31:01.203Z,0
2017-09-29T00:31:41.638Z,0
2017-09-29T00:32:22.100Z,0
2017-09-29T00:33:02.566Z,0
2017-09-29T00:33:43.022Z,0
2017-09-29T00:34:23.470Z,0
2017-09-29T00:35:03.932Z,0
2017-09-29T00:35:44.380Z,0
2017-09-29T00:36:24.828Z,0
2017-09-29T00:37:05.294Z,0
2017-09-29T00:37:45.753Z,0
2017-09-29T00:38:26.206Z,0
2017-09-29T00:39:06.661Z,0
2017-09-29T00:39:47.117Z,0
2017-09-29T00:42:20.164Z,0
2017-09-29T00:43:00.624Z,0
2017-09-29T00:43:41.082Z,0
2017-09-29T00:44:21.540Z,0
2017-09-29T00:45:01.989Z,0
2017-09-29T00:45:42.438Z,0
2017-09-29T00:46:22.895Z,0
2017-09-29T00:47:03.351Z,0
2017-09-29T00:47:43.809Z,0
2017-09-29T00:48:24.261Z,0
2017-09-29T00:49:04.716Z,0
2017-09-29T00:49:45.171Z,0
2017-09-29T00:50:25.624Z,0
2017-09-29T00:51:06.081Z,0
2017-09-29T00:51:46.541Z,0
2017-09-29T00:52:26.989Z,0
2017-09-29T00:53:07.448Z,0
2017-09-29T00:53:47.888Z,0
2017-09-29T00:54:28.343Z,0
2017-09-29T00:55:08.800Z,0
2017-09-29T00:55:49.257Z,0
2017-09-29T00:56:29.711Z,0
2017-09-29T00:57:10.163Z,0
2017-09-29T00:57:50.613Z,0
2017-09-29T00:58:31.070Z,0
2017-09-29T00:59:11.522Z,0
2017-09-29T00:59:51.974Z,0
2017-09-29T01:00:32.432Z,0
2017-09-29T01:01:12.883Z,0
2017-09-29T01:01:53.335Z,0
2017-09-29T01:02:33.789Z,0
2017-09-29T01:03:14.249Z,0
2017-09-29T01:03:54.707Z,0
2017-09-29T01:04:35.192Z,0
2017-09-29T01:05:15.627Z,0
2017-09-29T01:05:56.083Z,0
2017-09-29T01:06:36.536Z,0
2017-09-29T01:07:16.992Z,0
2017-09-29T01:07:57.453Z,0
2017-09-29T01:08:37.903Z,0
2017-09-29T01:09:18.353Z,0
2017-09-29T01:09:58.801Z,0
2017-09-29T01:10:39.259Z,0
2017-09-29T01:11:19.715Z,0
2017-09-29T01:12:00.177Z,0
2017-09-29T01:12:40.630Z,0
2017-09-29T01:13:21.080Z,0
2017-09-29T01:14:01.524Z,0
2017-09-29T01:14:41.981Z,0
2017-09-29T01:15:22.432Z,0
2017-09-29T01:16:02.921Z,0
2017-09-29T01:16:43.330Z,0
2017-09-29T01:17:23.785Z,0
2017-09-29T01:18:04.243Z,0
2017-09-29T01:18:44.701Z,0
2017-09-29T01:19:25.156Z,0
2017-09-29T01:20:05.609Z,0
2017-09-29T01:20:46.066Z,0
2017-09-29T01:21:26.524Z,0
2017-09-29T01:22:06.982Z,0
2017-09-29T01:22:47.429Z,0
2017-09-29T01:23:27.883Z,0
2017-09-29T01:24:08.327Z,0
2017-09-29T01:24:48.790Z,0
2017-09-29T01:25:29.249Z,0
2017-09-29T01:26:09.698Z,0
2017-09-29T01:26:50.188Z,0
2017-09-29T01:27:30.607Z,0
2017-09-29T01:28:11.067Z,0
2017-09-29T01:28:51.521Z,0
2017-09-29T01:29:31.963Z,0
2017-09-29T01:30:12.486Z,0
2017-09-29T01:30:52.877Z,0
2017-09-29T01:31:33.324Z,0
2017-09-29T01:32:13.775Z,0
2017-09-29T01:32:54.234Z,0
2017-09-29T01:33:34.692Z,0
2017-09-29T01:34:15.133Z,0
2017-09-29T01:34:55.588Z,0
2017-09-29T01:35:36.044Z,0
2017-09-29T01:36:16.484Z,0
2017-09-29T01:36:56.941Z,0
2017-09-29T01:37:37.398Z,0
2017-09-29T01:38:17.854Z,0
2017-09-29T01:38:58.316Z,0
2017-09-29T01:39:38.766Z,0
2017-09-29T01:40:19.212Z,0
2017-09-29T01:40:59.671Z,0
2017-09-29T01:41:40.134Z,0
2017-09-29T01:42:20.592Z,0
2017-09-29T01:43:01.042Z,0
2017-09-29T01:43:41.503Z,0
2017-09-29T01:44:21.953Z,0
2017-09-29T01:45:02.409Z,0
2017-09-29T01:45:42.868Z,0
2017-09-29T01:46:23.318Z,0
2017-09-29T01:47:03.776Z,0
2017-09-29T01:47:44.222Z,0
2017-09-29T01:48:24.686Z,0
2017-09-29T01:49:05.138Z,0
2017-09-29T01:49:45.592Z,0
2017-09-29T01:50:26.038Z,0
2017-09-29T01:51:06.490Z,0
2017-09-29T01:51:46.943Z,0
2017-09-29T01:52:27.406Z,0
2017-09-29T01:53:07.847Z,0
2017-09-29T01:53:48.297Z,0
2017-09-29T01:54:28.757Z,0
2017-09-29T01:55:09.213Z,0
2017-09-29T01:55:49.671Z,0
2017-09-29T01:56:30.127Z,0
2017-09-29T01:57:10.582Z,0
2017-09-29T01:57:51.033Z,0
2017-09-29T01:58:31.491Z,0
2017-09-29T01:59:11.949Z,0
2017-09-29T01:59:52.405Z,0
2017-09-29T02:00:32.855Z,0
2017-09-29T02:01:13.314Z,0
2017-09-29T02:01:53.765Z,0
2017-09-29T02:02:34.220Z,0
2017-09-29T02:03:14.677Z,0
2017-09-29T02:03:55.133Z,0
2017-09-29T02:04:35.589Z,0
2017-09-29T02:05:16.041Z,0
2017-09-29T02:05:56.497Z,0
2017-09-29T02:06:36.952Z,0
2017-09-29T02:07:17.407Z,0
2017-09-29T02:07:57.858Z,0
2017-09-29T02:08:38.305Z,0
2017-09-29T02:09:18.766Z,0
2017-09-29T02:09:59.219Z,0
2017-09-29T02:10:39.668Z,0
2017-09-29T02:11:20.125Z,0
2017-09-29T02:12:00.585Z,0
2017-09-29T02:12:41.039Z,0
2017-09-29T02:13:21.489Z,0
2017-09-29T02:14:01.941Z,0
2017-09-29T02:14:42.395Z,0
2017-09-29T02:17:16.460Z,0
2017-09-29T02:17:56.914Z,0
2017-09-29T02:18:37.380Z,0
2017-09-29T02:19:17.833Z,0
2017-09-29T02:19:58.288Z,0
2017-09-29T02:20:38.741Z,0
2017-09-29T02:21:19.197Z,0
2017-09-29T02:21:59.659Z,0
2017-09-29T02:22:40.110Z,0
2017-09-29T02:23:20.566Z,0
2017-09-29T02:24:01.019Z,0
2017-09-29T02:24:41.477Z,0
2017-09-29T02:25:21.974Z,0
2017-09-29T02:26:02.377Z,0
2017-09-29T02:26:42.832Z,0
2017-09-29T02:27:23.298Z,0
2017-09-29T02:28:03.743Z,0
2017-09-29T02:28:44.204Z,0
2017-09-29T02:29:24.672Z,0
2017-09-29T02:30:05.142Z,0
2017-09-29T02:30:45.579Z,0
2017-09-29T02:31:26.036Z,0
2017-09-29T02:32:06.483Z,0
2017-09-29T02:32:46.941Z,0
2017-09-29T02:33:27.399Z,0
2017-09-29T02:34:07.847Z,0
2017-09-29T02:34:48.289Z,0
2017-09-29T02:35:28.752Z,0
2017-09-29T02:36:09.204Z,0
2017-09-29T02:36:49.666Z,0
2017-09-29T02:37:30.127Z,0
2017-09-29T02:38:10.584Z,0
2017-09-29T02:38:51.038Z,0
2017-09-29T02:39:31.504Z,0
2017-09-29T02:40:11.959Z,0
2017-09-29T02:40:52.420Z,0
2017-09-29T02:41:32.909Z,0
2017-09-29T02:42:13.373Z,0
2017-09-29T02:42:53.841Z,0
2017-09-29T02:43:34.292Z,0
2017-09-29T02:44:14.750Z,0
2017-09-29T02:44:55.215Z,0
2017-09-29T02:45:35.672Z,0
2017-09-29T02:46:16.130Z,0
2017-09-29T02:46:56.575Z,0
2017-09-29T02:47:37.038Z,0
2017-09-29T02:48:17.489Z,0
2017-09-29T02:48:57.936Z,0
2017-09-29T02:49:38.384Z,0
2017-09-29T02:50:18.833Z,0
2017-09-29T02:50:59.292Z,0
2017-09-29T02:51:39.754Z,0
2017-09-29T02:52:20.218Z,0
2017-09-29T02:53:00.681Z,0
2017-09-29T02:53:41.139Z,0
2017-09-29T02:54:21.607Z,0
2017-09-29T02:55:02.061Z,0
2017-09-29T02:55:42.512Z,0
2017-09-29T02:56:22.964Z,0
2017-09-29T02:57:03.421Z,0
2017-09-29T02:57:43.879Z,0
2017-09-29T02:58:24.334Z,0
2017-09-29T02:59:04.794Z,0
2017-09-29T02:59:45.250Z,0
2017-09-29T03:00:25.705Z,0
2017-09-29T03:01:06.167Z,0
2017-09-29T03:01:46.616Z,0
2017-09-29T03:02:27.069Z,0
2017-09-29T03:03:07.526Z,0
2017-09-29T03:03:47.982Z,0
2017-09-29T03:04:28.422Z,0
2017-09-29T03:05:08.876Z,0
2017-09-29T03:05:49.333Z,0
2017-09-29T03:06:29.788Z,0
2017-09-29T03:07:10.233Z,0
2017-09-29T03:07:50.687Z,0
2017-09-29T03:08:31.141Z,0
2017-09-29T03:09:11.601Z,0
2017-09-29T03:09:52.051Z,0
2017-09-29T03:10:32.509Z,0
2017-09-29T03:11:12.966Z,0
2017-09-29T03:11:53.415Z,0
2017-09-29T03:12:33.876Z,0
2017-09-29T03:13:14.335Z,0
2017-09-29T03:13:54.792Z,0
2017-09-29T03:14:35.253Z,0
2017-09-29T03:15:15.710Z,0
2017-09-29T03:15:56.165Z,0
2017-09-29T03:16:36.618Z,0
2017-09-29T03:17:17.073Z,0
2017-09-29T03:17:57.542Z,0
2017-09-29T03:18:38.034Z,0
2017-09-29T03:19:18.484Z,0
2017-09-29T03:19:58.953Z,0
2017-09-29T03:20:39.392Z,0
2017-09-29T03:21:19.850Z,0
2017-09-29T03:22:00.306Z,0
2017-09-29T03:22:40.756Z,0
2017-09-29T03:23:21.212Z,0
2017-09-29T03:24:01.671Z,0
2017-09-29T03:24:42.128Z,0
2017-09-29T03:25:22.588Z,0
2017-09-29T03:26:03.028Z,0
2017-09-29T03:26:43.484Z,0
2017-09-29T03:27:23.931Z,0
2017-09-29T03:28:04.390Z,0
2017-09-29T03:28:44.849Z,0
2017-09-29T03:29:25.310Z,0
2017-09-29T03:30:05.769Z,0
2017-09-29T03:30:46.239Z,0
2017-09-29T03:31:26.693Z,0
2017-09-29T03:32:07.135Z,0
2017-09-29T03:32:47.583Z,0
2017-09-29T03:33:28.040Z,0
2017-09-29T03:34:08.499Z,0
2017-09-29T03:34:48.949Z,0
2017-09-29T03:35:29.406Z,0
2017-09-29T03:36:09.876Z,0
2017-09-29T03:36:50.332Z,0
2017-09-29T03:37:30.786Z,0
2017-09-29T03:38:11.240Z,0
2017-09-29T03:38:51.683Z,0
2017-09-29T03:39:32.145Z,0
2017-09-29T03:40:12.654Z,0
2017-09-29T03:40:53.030Z,0
2017-09-29T03:41:33.477Z,0
2017-09-29T03:42:13.939Z,0
2017-09-29T03:42:54.390Z,0
2017-09-29T03:43:34.852Z,0
2017-09-29T03:44:15.302Z,0
2017-09-29T03:44:55.763Z,0
2017-09-29T03:45:36.215Z,0
2017-09-29T03:46:16.673Z,0
2017-09-29T03:46:57.122Z,0
2017-09-29T03:47:37.601Z,0
2017-09-29T03:48:18.044Z,0
2017-09-29T03:48:58.521Z,0
2017-09-29T03:49:38.972Z,0
2017-09-29T03:50:19.429Z,0
2017-09-29T03:50:59.883Z,0
2017-09-29T03:51:40.337Z,0
2017-09-29T03:52:20.790Z,0
2017-09-29T03:53:01.248Z,0
2017-09-29T03:53:41.703Z,0
2017-09-29T03:54:22.170Z,0
2017-09-29T03:55:02.623Z,0
2017-09-29T03:55:43.079Z,0
2017-09-29T03:56:23.544Z,0
2017-09-29T03:57:04.005Z,0
2017-09-29T03:57:44.456Z,0
2017-09-29T03:58:24.914Z,0
2017-09-29T03:59:05.372Z,0
2017-09-29T03:59:45.820Z,0
2017-09-29T04:00:26.276Z,0
2017-09-29T04:01:06.731Z,0
2017-09-29T04:01:47.185Z,0
2017-09-29T04:02:27.704Z,0
2017-09-29T04:03:08.142Z,0
2017-09-29T04:03:48.615Z,0
2017-09-29T04:04:29.057Z,0
2017-09-29T04:05:09.506Z,0
2017-09-29T04:05:49.968Z,0
2017-09-29T04:06:30.421Z,0
2017-09-29T04:07:10.872Z,0
2017-09-29T04:07:51.321Z,0
2017-09-29T04:08:31.794Z,0
2017-09-29T04:09:12.240Z,0
2017-09-29T04:09:52.687Z,0
2017-09-29T04:10:33.145Z,0
2017-09-29T04:11:13.618Z,0
2017-09-29T04:11:54.101Z,0
2017-09-29T04:12:34.517Z,0
2017-09-29T04:13:14.982Z,0
2017-09-29T04:13:55.452Z,0
2017-09-29T04:14:35.895Z,0
2017-09-29T04:15:16.342Z,0
2017-09-29T04:15:56.805Z,0
2017-09-29T04:16:37.271Z,0
2017-09-29T04:17:17.801Z,0
2017-09-29T04:17:58.272Z,0
2017-09-29T04:18:38.757Z,0
2017-09-29T04:19:19.171Z,0
2017-09-29T04:19:59.649Z,0
2017-09-29T04:20:40.120Z,0
2017-09-29T04:21:20.586Z,0
2017-09-29T04:22:01.034Z,0
2017-09-29T04:22:41.508Z,0
2017-09-29T04:23:21.961Z,0
2017-09-29T04:24:02.413Z,0
2017-09-29T04:24:42.856Z,0
2017-09-29T04:25:23.310Z,0
2017-09-29T04:26:03.765Z,0
2017-09-29T04:26:44.221Z,0
2017-09-29T04:27:24.672Z,0
2017-09-29T04:28:05.129Z,0
2017-09-29T04:28:45.572Z,0
2017-09-29T04:29:26.026Z,0
2017-09-29T04:30:06.475Z,0
2017-09-29T04:30:46.923Z,0
2017-09-29T04:31:27.376Z,0
2017-09-29T04:32:07.831Z,0
2017-09-29T04:32:48.272Z,0
2017-09-29T04:33:28.725Z,0
2017-09-29T04:34:09.181Z,0
2017-09-29T04:34:49.636Z,0
2017-09-29T04:35:30.090Z,0
2017-09-29T04:36:10.544Z,0
2017-09-29T04:36:51.002Z,0
2017-09-29T04:37:31.461Z,0
2017-09-29T04:38:11.911Z,0
2017-09-29T04:38:52.364Z,0
2017-09-29T04:39:32.807Z,0
2017-09-29T04:40:13.271Z,0
2017-09-29T04:40:53.723Z,0
2017-09-29T04:41:34.174Z,0
2017-09-29T04:42:14.631Z,0
2017-09-29T04:42:55.083Z,0
2017-09-29T04:43:35.544Z,0
2017-09-29T04:44:15.999Z,0
2017-09-29T04:44:56.444Z,0
2017-09-29T04:45:36.903Z,0
2017-09-29T04:46:17.361Z,0
2017-09-29T04:46:57.822Z,0
2017-09-29T04:47:38.275Z,0
2017-09-29T04:48:18.738Z,0
2017-09-29T04:48:59.190Z,0
2017-09-29T04:49:39.650Z,0
2017-09-29T04:50:20.117Z,0
2017-09-29T04:51:00.566Z,0
2017-09-29T04:51:41.023Z,0
2017-09-29T04:52:21.470Z,0
2017-09-29T04:53:01.933Z,0
2017-09-29T04:53:42.383Z,0
2017-09-29T04:54:22.839Z,0
2017-09-29T04:55:03.299Z,0
2017-09-29T04:55:43.757Z,0
2017-09-29T04:56:24.226Z,0
2017-09-29T04:57:04.663Z,0
2017-09-29T04:57:45.112Z,0
2017-09-29T04:58:25.570Z,0
2017-09-29T04:59:06.025Z,0
2017-09-29T04:59:46.482Z,0
2017-09-29T05:00:26.934Z,0
2017-09-29T05:01:07.397Z,0
2017-09-29T05:01:47.838Z,0
2017-09-29T05:02:28.289Z,0
2017-09-29T05:03:08.740Z,0
2017-09-29T05:03:49.190Z,0
2017-09-29T05:04:29.648Z,0
2017-09-29T05:05:10.101Z,0
2017-09-29T05:05:50.556Z,0
2017-09-29T05:06:31.016Z,0
2017-09-29T05:07:11.472Z,0
2017-09-29T05:07:51.928Z,0
2017-09-29T05:08:32.384Z,0
2017-09-29T05:09:12.838Z,0
2017-09-29T05:09:53.286Z,0
2017-09-29T05:10:33.732Z,0
2017-09-29T05:11:14.226Z,0
2017-09-29T05:11:54.647Z,0
2017-09-29T05:12:35.106Z,0
2017-09-29T05:13:15.558Z,0
2017-09-29T05:13:56.012Z,0
2017-09-29T05:14:36.464Z,0
2017-09-29T05:15:16.920Z,0
2017-09-29T05:15:57.376Z,0
2017-09-29T05:16:37.837Z,0
2017-09-29T05:17:18.292Z,0
2017-09-29T05:17:58.756Z,0
2017-09-29T05:18:39.205Z,0
2017-09-29T05:19:19.668Z,0
2017-09-29T05:20:00.121Z,0
2017-09-29T05:20:40.576Z,0
2017-09-29T05:21:21.033Z,0
2017-09-29T05:22:01.488Z,0
2017-09-29T05:22:41.945Z,0
2017-09-29T05:23:22.400Z,0
2017-09-29T05:24:02.855Z,0
2017-09-29T05:24:43.315Z,0
2017-09-29T05:25:23.756Z,0
2017-09-29T05:26:04.223Z,0
2017-09-29T05:26:44.681Z,0
2017-09-29T05:27:25.137Z,0
2017-09-29T05:28:05.599Z,0
2017-09-29T05:28:46.054Z,0
2017-09-29T05:29:26.512Z,0
2017-09-29T05:30:06.964Z,0
2017-09-29T05:30:47.418Z,0
2017-09-29T05:31:27.868Z,0
2017-09-29T05:32:08.315Z,0
2017-09-29T05:32:48.778Z,0
2017-09-29T05:33:29.221Z,0
2017-09-29T05:34:09.675Z,0
2017-09-29T05:34:50.120Z,0
2017-09-29T05:35:30.567Z,0
2017-09-29T05:36:11.047Z,0
2017-09-29T05:36:51.474Z,0
2017-09-29T05:37:31.912Z,0
2017-09-29T05:38:12.348Z,0
2017-09-29T05:38:52.794Z,0
2017-09-29T05:39:33.263Z,0
2017-09-29T05:40:13.711Z,0
2017-09-29T05:40:54.159Z,0
2017-09-29T05:41:35.291Z,0
2017-09-29T05:42:15.737Z,0
2017-09-29T05:42:56.196Z,0
2017-09-29T05:43:36.643Z,0
2017-09-29T05:44:17.096Z,0
2017-09-29T05:44:57.556Z,0
2017-09-29T05:45:37.996Z,0
2017-09-29T05:46:18.458Z,0
2017-09-29T05:46:58.909Z,0
2017-09-29T05:47:39.369Z,0
2017-09-29T05:48:19.829Z,0
2017-09-29T05:49:00.288Z,0
2017-09-29T05:49:40.776Z,0
2017-09-29T05:50:21.183Z,0
2017-09-29T05:51:01.642Z,0
2017-09-29T05:51:42.098Z,0
2017-09-29T05:52:22.546Z,0
2017-09-29T05:53:03.010Z,0
2017-09-29T05:53:43.464Z,0
2017-09-29T05:54:23.920Z,0
2017-09-29T05:55:04.376Z,0
2017-09-29T05:55:44.837Z,0
2017-09-29T05:56:25.295Z,0
2017-09-29T05:57:05.750Z,0
2017-09-29T05:57:46.204Z,0
2017-09-29T05:58:26.665Z,0
2017-09-29T05:59:07.119Z,0
2017-09-29T05:59:47.575Z,0
2017-09-29T06:00:28.029Z,0
2017-09-29T06:01:08.486Z,0
2017-09-29T06:01:48.952Z,0
2017-09-29T06:02:29.400Z,0
2017-09-29T06:03:09.879Z,0
2017-09-29T06:03:50.331Z,0
2017-09-29T06:04:30.794Z,0
2017-09-29T06:05:11.251Z,0
2017-09-29T06:05:51.706Z,0
2017-09-29T06:06:32.162Z,0
2017-09-29T06:07:12.620Z,0
2017-09-29T06:07:53.079Z,0
2017-09-29T06:08:33.533Z,0
2017-09-29T06:09:13.985Z,0
2017-09-29T06:09:54.444Z,0
2017-09-29T06:10:34.904Z,0
2017-09-29T06:11:15.359Z,0
2017-09-29T06:11:55.811Z,0
2017-09-29T06:12:36.265Z,0
2017-09-29T06:13:16.727Z,0
2017-09-29T06:13:57.183Z,0
2017-09-29T06:14:37.635Z,0
2017-09-29T06:15:18.119Z,0
2017-09-29T06:15:58.573Z,0
2017-09-29T06:16:39.023Z,0
2017-09-29T06:17:19.489Z,0
2017-09-29T06:17:59.940Z,0
2017-09-29T06:18:40.397Z,0
2017-09-29T06:19:20.851Z,0
2017-09-29T06:20:01.303Z,0
2017-09-29T06:20:41.761Z,0
2017-09-29T06:21:22.218Z,0
2017-09-29T06:22:02.680Z,0
2017-09-29T06:22:43.141Z,0
2017-09-29T06:23:23.590Z,0
2017-09-29T06:24:04.048Z,0
2017-09-29T06:24:44.504Z,0
2017-09-29T06:25:24.949Z,0
2017-09-29T06:26:05.401Z,0
2017-09-29T06:26:45.858Z,0
2017-09-29T06:27:26.308Z,0
2017-09-29T06:28:06.764Z,0
2017-09-29T06:28:47.216Z,0
2017-09-29T06:29:27.668Z,0
2017-09-29T06:30:08.116Z,0
2017-09-29T06:30:48.569Z,0
2017-09-29T06:31:29.027Z,0
2017-09-29T06:32:09.484Z,0
2017-09-29T06:32:49.943Z,0
2017-09-29T06:33:30.406Z,0
2017-09-29T06:34:10.855Z,0
2017-09-29T06:34:51.315Z,0
2017-09-29T06:35:31.775Z,0
2017-09-29T06:36:12.229Z,0
2017-09-29T06:36:52.680Z,0
2017-09-29T06:37:33.149Z,0
2017-09-29T06:38:13.604Z,0
2017-09-29T06:38:54.059Z,0
2017-09-29T06:39:34.522Z,0
2017-09-29T06:40:15.017Z,0
2017-09-29T06:40:55.452Z,0
2017-09-29T06:41:35.905Z,0
2017-09-29T06:42:16.361Z,0
2017-09-29T06:42:56.816Z,0
2017-09-29T06:43:37.287Z,0
2017-09-29T06:44:17.736Z,0
2017-09-29T06:44:58.202Z,0
2017-09-29T06:45:38.657Z,0
2017-09-29T06:46:19.118Z,0
2017-09-29T06:46:59.574Z,5
2017-09-29T06:47:40.022Z,5
2017-09-29T06:48:20.471Z,5
2017-09-29T06:49:00.932Z,5
2017-09-29T06:49:41.389Z,5
2017-09-29T06:50:21.838Z,5
2017-09-29T06:51:02.440Z,5
2017-09-29T06:51:42.899Z,5
2017-09-29T06:52:23.361Z,5
2017-09-29T06:53:03.815Z,5
2017-09-29T06:53:44.270Z,5
2017-09-29T06:54:24.729Z,5
2017-09-29T06:55:05.184Z,5
2017-09-29T06:55:45.645Z,5
2017-09-29T06:56:26.098Z,5
2017-09-29T06:57:06.564Z,5
2017-09-29T06:57:47.009Z,5
2017-09-29T06:58:27.465Z,5
2017-09-29T06:59:07.926Z,5
2017-09-29T06:59:48.370Z,5
2017-09-29T07:02:01.168Z,5
2017-09-29T07:02:41.616Z,5
2017-09-29T07:03:22.072Z,5
2017-09-29T07:04:02.540Z,5
2017-09-29T07:04:42.991Z,5
2017-09-29T07:05:23.449Z,5
2017-09-29T07:06:03.898Z,5
2017-09-29T07:06:44.352Z,5
2017-09-29T07:07:24.800Z,5
2017-09-29T07:08:05.258Z,5
2017-09-29T07:08:45.716Z,5
2017-09-29T07:09:26.170Z,5
2017-09-29T07:10:06.624Z,5
2017-09-29T07:10:47.081Z,5
2017-09-29T07:11:27.529Z,5
2017-09-29T07:12:07.988Z,5
2017-09-29T07:12:48.779Z,5
2017-09-29T07:13:29.227Z,5
2017-09-29T07:14:09.680Z,5
2017-09-29T07:14:50.142Z,5
2017-09-29T07:15:30.593Z,5
2017-09-29T07:16:11.053Z,5
2017-09-29T07:16:51.502Z,5
2017-09-29T07:17:31.953Z,5
2017-09-29T07:18:12.411Z,5
2017-09-29T07:18:52.866Z,5
2017-09-29T07:19:33.337Z,5
2017-09-29T07:20:13.784Z,5
2017-09-29T07:20:54.235Z,5
2017-09-29T07:21:34.691Z,5
2017-09-29T07:22:15.142Z,5
2017-09-29T07:22:55.603Z,5
2017-09-29T07:23:36.056Z,5
2017-09-29T07:24:16.515Z,5
2017-09-29T07:24:56.972Z,5
2017-09-29T07:25:37.433Z,5
2017-09-29T07:26:17.881Z,5
2017-09-29T07:26:58.337Z,5
2017-09-29T07:27:38.791Z,5
2017-09-29T07:28:19.238Z,5
2017-09-29T07:28:59.684Z,5
2017-09-29T07:29:40.138Z,5
2017-09-29T07:30:20.590Z,5
2017-09-29T07:31:01.048Z,5
2017-09-29T07:31:41.512Z,5
2017-09-29T07:32:21.961Z,5
2017-09-29T07:33:02.414Z,5
2017-09-29T07:33:42.876Z,5
2017-09-29T07:34:23.330Z,5
2017-09-29T07:35:03.789Z,5
2017-09-29T07:35:44.240Z,5
2017-09-29T07:36:24.696Z,5
2017-09-29T07:37:05.186Z,5
2017-09-29T07:37:45.615Z,5
2017-09-29T07:38:26.078Z,5
2017-09-29T07:39:06.542Z,5
2017-09-29T07:39:46.993Z,5
2017-09-29T07:40:27.446Z,5
2017-09-29T07:41:07.911Z,5
2017-09-29T07:41:48.367Z,5
2017-09-29T07:42:28.828Z,5
2017-09-29T07:43:09.274Z,5
2017-09-29T07:43:49.728Z,5
2017-09-29T07:44:30.198Z,5
2017-09-29T07:45:10.773Z,5
2017-09-29T07:45:51.244Z,5
2017-09-29T07:46:31.699Z,5
2017-09-29T07:47:12.225Z,10
2017-09-29T07:47:52.679Z,10
2017-09-29T07:48:33.135Z,10
2017-09-29T07:49:13.750Z,10
2017-09-29T07:49:54.051Z,10
2017-09-29T07:50:34.512Z,10
2017-09-29T07:51:14.967Z,10
2017-09-29T07:51:55.411Z,10
2017-09-29T07:54:28.434Z,15
2017-09-29T07:55:08.891Z,15
2017-09-29T07:55:49.332Z,15
2017-09-29T07:58:07.295Z,15
2017-09-29T07:58:47.744Z,15
2017-09-29T07:59:28.187Z,15
2017-09-29T08:00:08.674Z,20
2017-09-29T08:00:49.126Z,20
2017-09-29T08:01:29.574Z,20
2017-09-29T08:02:10.027Z,20
2017-09-29T08:02:50.477Z,20
2017-09-29T08:03:30.932Z,20
2017-09-29T08:04:11.384Z,25
2017-09-29T08:04:51.837Z,30
2017-09-29T08:05:32.285Z,35
2017-09-29T08:06:12.738Z,45
2017-09-29T08:06:53.189Z,50
2017-09-29T08:07:33.640Z,70
2017-09-29T08:08:14.097Z,65
2017-09-29T08:08:54.551Z,50
2017-09-29T08:09:35.005Z,45
2017-09-29T08:10:15.492Z,50
2017-09-29T08:10:55.896Z,55
2017-09-29T08:11:36.347Z,65
2017-09-29T08:12:16.798Z,75
2017-09-29T08:12:57.241Z,90
2017-09-29T08:13:37.700Z,85
2017-09-29T08:14:18.328Z,95
2017-09-29T08:14:58.778Z,95
2017-09-29T08:15:39.228Z,85
2017-09-29T08:16:19.714Z,85
2017-09-29T08:17:00.167Z,65
2017-09-29T08:17:40.632Z,75
2017-09-29T08:18:21.088Z,65
2017-09-29T08:19:01.541Z,50
2017-09-29T08:19:41.989Z,50
2017-09-29T08:20:22.436Z,55
2017-09-29T08:21:02.889Z,65
2017-09-29T08:21:43.355Z,130
2017-09-29T08:22:23.801Z,80
2017-09-29T08:23:04.252Z,65
2017-09-29T08:23:44.702Z,90
2017-09-29T08:24:25.151Z,115
2017-09-29T08:26:37.947Z,85
2017-09-29T08:27:18.405Z,135
2017-09-29T08:27:58.884Z,140
2017-09-29T08:28:39.340Z,130
2017-09-29T08:29:19.801Z,140
2017-09-29T08:30:00.252Z,140
2017-09-29T08:30:40.703Z,135
2017-09-29T08:31:21.146Z,130
2017-09-29T08:32:01.598Z,115
2017-09-29T08:32:42.046Z,110
2017-09-29T08:33:22.492Z,125
2017-09-29T08:34:02.944Z,135
2017-09-29T08:34:43.389Z,105
2017-09-29T08:35:23.839Z,75
2017-09-29T08:36:04.292Z,70
2017-09-29T08:36:44.753Z,75
2017-09-29T08:37:25.216Z,80
2017-09-29T08:38:05.660Z,95
2017-09-29T08:38:46.110Z,100
2017-09-29T08:39:26.560Z,100
2017-09-29T08:40:07.013Z,100
2017-09-29T08:40:47.455Z,150
2017-09-29T08:41:27.911Z,155
2017-09-29T08:42:08.360Z,115
2017-09-29T08:42:48.821Z,110
2017-09-29T08:43:29.269Z,135
2017-09-29T08:44:09.730Z,110
2017-09-29T08:44:50.177Z,145
2017-09-29T08:45:30.633Z,170
2017-09-29T08:46:11.089Z,165
2017-09-29T08:46:51.543Z,150
2017-09-29T08:47:31.999Z,170
2017-09-29T08:48:12.459Z,155
2017-09-29T08:48:52.913Z,135
2017-09-29T08:51:20.915Z,105
2017-09-29T08:52:01.367Z,85
2017-09-29T08:52:41.828Z,85
2017-09-29T08:53:22.267Z,90
2017-09-29T08:54:02.725Z,90
2017-09-29T08:54:43.175Z,85
2017-09-29T08:55:23.637Z,110
2017-09-29T08:56:04.100Z,100
2017-09-29T08:56:44.553Z,105
2017-09-29T08:57:25.010Z,85
2017-09-29T08:58:05.466Z,80
2017-09-29T08:58:45.919Z,70
2017-09-29T08:59:26.373Z,70
2017-09-29T09:00:06.815Z,60
2017-09-29T09:00:47.271Z,60
2017-09-29T09:01:27.725Z,60
2017-09-29T09:02:08.178Z,60
2017-09-29T09:02:48.629Z,60
2017-09-29T09:03:29.085Z,60
2017-09-29T09:04:09.564Z,60
2017-09-29T09:04:50.026Z,60
2017-09-29T09:05:30.469Z,55
2017-09-29T09:06:10.928Z,50
2017-09-29T09:06:51.388Z,50
2017-09-29T09:07:31.838Z,50
2017-09-29T09:08:12.297Z,55
2017-09-29T09:08:52.748Z,55
2017-09-29T09:09:33.197Z,60
2017-09-29T09:10:13.660Z,60
2017-09-29T09:10:54.113Z,60
2017-09-29T09:11:34.566Z,65
2017-09-29T09:12:15.018Z,75
2017-09-29T09:12:55.472Z,80
2017-09-29T09:13:35.929Z,70
2017-09-29T09:14:16.381Z,80
2017-09-29T09:14:56.815Z,70
2017-09-29T09:15:37.270Z,70
2017-09-29T09:16:17.726Z,85
2017-09-29T09:16:58.187Z,80
2017-09-29T09:17:38.662Z,110
2017-09-29T09:18:19.111Z,95
2017-09-29T09:18:59.549Z,85
2017-09-29T09:19:39.999Z,95
2017-09-29T09:20:20.458Z,105
2017-09-29T09:21:00.984Z,105
2017-09-29T09:21:41.432Z,105
2017-09-29T09:22:21.888Z,170
2017-09-29T09:23:02.333Z,105
2017-09-29T09:23:42.781Z,100
2017-09-29T09:24:23.297Z,125
2017-09-29T09:25:03.758Z,105
2017-09-29T09:25:44.217Z,175
2017-09-29T09:26:24.666Z,130
2017-09-29T09:27:05.115Z,100
2017-09-29T09:27:45.569Z,100
2017-09-29T09:28:26.023Z,95
2017-09-29T09:29:06.472Z,100
2017-09-29T09:29:46.922Z,150
2017-09-29T09:30:27.378Z,150
2017-09-29T09:31:07.818Z,180
2017-09-29T09:31:48.267Z,135
2017-09-29T09:32:28.723Z,180
2017-09-29T09:33:09.180Z,125
2017-09-29T09:33:49.633Z,115
2017-09-29T09:34:30.089Z,135
2017-09-29T09:35:10.537Z,120
2017-09-29T09:35:50.991Z,175
2017-09-29T09:36:31.455Z,110
2017-09-29T09:37:11.907Z,105
2017-09-29T09:37:52.360Z,85
2017-09-29T09:38:32.816Z,115
2017-09-29T09:39:13.308Z,115
2017-09-29T09:39:53.765Z,140
2017-09-29T09:40:34.223Z,150
2017-09-29T09:41:14.675Z,100
2017-09-29T09:41:55.129Z,130
2017-09-29T09:42:35.593Z,160
2017-09-29T09:43:16.049Z,155
2017-09-29T09:43:56.508Z,160
2017-09-29T09:44:36.965Z,165
2017-09-29T09:45:17.435Z,160
2017-09-29T09:45:57.886Z,140
2017-09-29T09:46:38.332Z,155
2017-09-29T09:47:18.783Z,190
2017-09-29T09:47:59.241Z,160
2017-09-29T09:48:39.696Z,175
2017-09-29T09:49:20.166Z,110
2017-09-29T09:50:00.611Z,100
2017-09-29T09:50:41.050Z,110
2017-09-29T09:51:21.516Z,90
2017-09-29T09:52:01.965Z,105
2017-09-29T09:52:42.425Z,105
2017-09-29T09:53:22.877Z,115
2017-09-29T09:54:03.334Z,100
2017-09-29T09:54:43.796Z,110
2017-09-29T09:55:24.258Z,160
2017-09-29T09:56:04.720Z,120
2017-09-29T09:56:45.308Z,170
2017-09-29T09:57:25.761Z,120
2017-09-29T09:58:06.218Z,110
2017-09-29T09:58:46.706Z,115
2017-09-29T09:59:27.136Z,110
2017-09-29T10:00:07.598Z,125
2017-09-29T10:00:48.067Z,115
2017-09-29T10:01:28.522Z,105
2017-09-29T10:02:08.979Z,110
2017-09-29T10:02:49.412Z,115